Time;durP1;ratioP1;P1;durP2;ratioP2;P2;SDS_P1;SDS_P2;PMS_P1;PMS_P2;Temp;Humidity;BMP_temperature;BMP_pressure;BME280_temperature;BME280_humidity;BME280_pressure;Samples;Min_cycle;Max_cycle;Signal;HPM_P1;HPM_P2
2023/11/15 00:00:40;;;;;;;4.20;2.70;;;;;;;7.79;100.00;98838.67;88459;274;138243;-72
2023/11/15 00:02:42;;;;;;;6.30;2.10;;;;;;;7.79;100.00;98838.52;88603;281;22550;-71
2023/11/15 00:04:44;;;;;;;3.50;2.80;;;;;;;7.79;100.00;98836.63;88439;275;137098;-72
2023/11/15 00:06:46;;;;;;;4.70;2.60;;;;;;;7.78;100.00;98840.96;88540;274;22541;-73
2023/11/15 00:08:48;;;;;;;3.40;2.90;;;;;;;7.77;100.00;98841.34;88328;276;136627;-72
2023/11/15 00:10:50;;;;;;;5.10;3.10;;;;;;;7.75;100.00;98838.15;88497;275;25087;-68
2023/11/15 00:12:52;;;;;;;4.50;2.70;;;;;;;7.74;100.00;98841.67;88338;274;136905;-70
2023/11/15 00:14:54;;;;;;;3.70;2.10;;;;;;;7.73;100.00;98838.56;88624;275;22543;-74
2023/11/15 00:16:58;;;;;;;6.10;4.30;;;;;;;7.71;100.00;98834.65;88351;282;138031;-72
2023/11/15 00:19:00;;;;;;;4.70;2.30;;;;;;;7.70;100.00;98833.92;88396;274;25172;-70
2023/11/15 00:21:03;;;;;;;4.30;2.20;;;;;;;7.69;100.00;98836.05;88317;275;136725;-71
2023/11/15 00:23:08;;;;;;;2.20;1.90;;;;;;;7.69;100.00;98838.12;88323;280;22705;-71
2023/11/15 00:25:11;;;;;;;2.50;1.70;;;;;;;7.70;100.00;98837.19;88267;276;138125;-68
2023/11/15 00:27:12;;;;;;;3.90;2.50;;;;;;;7.69;100.00;98835.48;88477;279;24046;-72
2023/11/15 00:29:14;;;;;;;4.00;3.10;;;;;;;7.70;100.00;98835.30;88290;276;138632;-74
2023/11/15 00:31:17;;;;;;;2.60;1.80;;;;;;;7.72;100.00;98837.34;88619;281;24036;-70
2023/11/15 00:33:19;;;;;;;3.70;1.90;;;;;;;7.74;100.00;98832.55;88423;281;137726;-73
2023/11/15 00:35:22;;;;;;;9.30;3.60;;;;;;;7.74;100.00;98833.06;88518;280;25216;-73
2023/11/15 00:37:24;;;;;;;6.50;2.80;;;;;;;7.75;100.00;98831.76;88585;282;138023;-68
2023/11/15 00:39:31;;;;;;;7.50;3.00;;;;;;;7.74;100.00;98828.08;88458;282;24049;-73
2023/11/15 00:41:33;;;;;;;27.20;2.80;;;;;;;7.73;100.00;98826.98;88499;279;136581;-70
2023/11/15 00:43:35;;;;;;;5.70;2.90;;;;;;;7.72;100.00;98827.64;88022;275;588761;-70
2023/11/15 00:45:37;;;;;;;5.10;3.00;;;;;;;7.71;100.00;98822.48;88311;276;137040;-71
2023/11/15 00:47:39;;;;;;;16.80;3.40;;;;;;;7.70;100.00;98823.84;88292;280;23721;-74
2023/11/15 00:49:44;;;;;;;8.20;3.70;;;;;;;7.69;100.00;98822.88;88131;280;137686;-75
2023/11/15 00:51:45;;;;;;;8.90;3.50;;;;;;;7.68;100.00;98822.25;88440;274;22616;-73
2023/11/15 00:53:47;;;;;;;6.20;3.60;;;;;;;7.67;100.00;98823.77;88212;276;136869;-74
2023/11/15 00:55:49;;;;;;;6.60;3.20;;;;;;;7.68;100.00;98824.91;88450;278;26183;-74
2023/11/15 00:57:51;;;;;;;6.40;2.90;;;;;;;7.67;100.00;98814.23;88210;275;136467;-71
2023/11/15 00:59:53;;;;;;;4.80;2.50;;;;;;;7.67;100.00;98817.94;88395;274;25493;-74
2023/11/15 01:01:58;;;;;;;4.10;2.70;;;;;;;7.66;100.00;98810.42;88284;274;136720;-72
2023/11/15 01:04:00;;;;;;;6.30;3.10;;;;;;;7.67;100.00;98809.65;88438;281;24088;-73
2023/11/15 01:06:03;;;;;;;6.40;3.10;;;;;;;7.68;100.00;98809.48;88872;281;137132;-73
2023/11/15 01:08:05;;;;;;;5.00;2.50;;;;;;;7.67;100.00;98811.84;88466;283;137072;-71
2023/11/15 01:10:08;;;;;;;7.30;3.00;;;;;;;7.67;100.00;98810.71;88505;282;25115;-72
2023/11/15 01:12:10;;;;;;;4.70;2.50;;;;;;;7.65;100.00;98810.17;88560;274;136961;-74
2023/11/15 01:14:12;;;;;;;4.40;2.40;;;;;;;7.64;100.00;98805.73;88440;275;22526;-72
2023/11/15 01:16:17;;;;;;;5.70;2.60;;;;;;;7.63;100.00;98808.34;88514;282;136896;-73
2023/11/15 01:18:22;;;;;;;;;;;;;;;7.62;100.00;98807.45;88517;282;24247;-71
2023/11/15 01:20:25;;;;;;;8.20;3.10;;;;;;;7.60;100.00;98796.36;88401;281;123314;-72
2023/11/15 01:22:27;;;;;;;4.80;2.20;;;;;;;7.57;100.00;98798.48;88507;279;22545;-71
2023/11/15 01:24:29;;;;;;;9.40;2.80;;;;;;;7.55;100.00;98790.66;88460;273;138216;-74
2023/11/15 01:26:31;;;;;;;3.60;2.50;;;;;;;7.55;100.00;98794.41;88346;281;22540;-71
2023/11/15 01:28:35;;;;;;;4.10;2.50;;;;;;;7.54;100.00;98783.03;88245;280;136846;-70
2023/11/15 01:30:37;;;;;;;3.80;3.00;;;;;;;7.54;100.00;98778.98;88573;281;22523;-73
2023/11/15 01:32:41;;;;;;;4.00;2.20;;;;;;;7.54;100.00;98776.62;88447;273;137361;-72
2023/11/15 01:34:43;;;;;;;8.20;3.80;;;;;;;7.52;100.00;98771.09;88510;276;22540;-72
2023/11/15 01:36:46;;;;;;;5.30;3.10;;;;;;;7.56;100.00;98776.34;88268;283;136870;-73
2023/11/15 01:38:48;;;;;;;5.70;2.60;;;;;;;7.57;100.00;98773.02;88594;274;22534;-72
2023/11/15 01:40:50;;;;;;;4.60;3.20;;;;;;;7.59;100.00;98776.40;88362;274;137010;-73
2023/11/15 01:42:52;;;;;;;4.00;2.30;;;;;;;7.60;100.00;98774.29;88527;282;22777;-71
2023/11/15 01:44:54;;;;;;;8.70;2.80;;;;;;;7.58;100.00;98777.52;88382;275;137101;-70
2023/11/15 01:46:57;;;;;;;5.40;2.30;;;;;;;7.58;100.00;98781.31;88501;283;24055;-73
2023/11/15 01:48:59;;;;;;;7.30;2.40;;;;;;;7.56;100.00;98778.23;88508;282;137026;-74
2023/11/15 01:51:02;;;;;;;5.90;2.80;;;;;;;7.54;100.00;98780.70;88494;282;24020;-73
2023/11/15 01:53:04;;;;;;;5.00;3.20;;;;;;;7.52;100.00;98778.70;88504;282;136674;-73
2023/11/15 01:55:12;;;;;;;5.10;3.30;;;;;;;7.52;100.00;98782.80;88515;282;22634;-74
2023/11/15 01:57:14;;;;;;;3.90;3.50;;;;;;;7.51;100.00;98787.89;88505;281;136870;-72
2023/11/15 01:59:16;;;;;;;4.40;2.60;;;;;;;7.49;100.00;98784.91;88479;283;22558;-70
2023/11/15 02:01:19;;;;;;;9.90;2.80;;;;;;;7.48;100.00;98786.63;88548;283;136744;-72
2023/11/15 02:03:22;;;;;;;4.40;2.20;;;;;;;7.47;100.00;98783.97;88562;282;22556;-71
2023/11/15 02:05:25;;;;;;;4.50;2.20;;;;;;;7.47;100.00;98788.38;88455;282;136482;-69
2023/11/15 02:07:28;;;;;;;4.90;2.30;;;;;;;7.47;100.00;98786.59;88508;283;22524;-70
2023/11/15 02:09:30;;;;;;;6.00;3.20;;;;;;;7.48;100.00;98788.30;88398;278;138540;-69
2023/11/15 02:11:32;;;;;;;7.90;3.10;;;;;;;7.48;100.00;98792.67;88486;275;22612;-69
2023/11/15 02:13:34;;;;;;;6.60;3.10;;;;;;;7.50;100.00;98797.45;88454;282;137251;-74
2023/11/15 02:15:37;;;;;;;3.40;2.50;;;;;;;7.52;100.00;98794.14;88372;283;22538;-72
2023/11/15 02:17:39;;;;;;;6.40;2.70;;;;;;;7.54;100.00;98801.47;88439;282;136587;-72
2023/11/15 02:19:41;;;;;;;5.20;2.30;;;;;;;7.55;100.00;98802.29;88653;282;24167;-76
2023/11/15 02:21:43;;;;;;;5.90;3.60;;;;;;;7.57;100.00;98800.44;88284;283;137768;-76
2023/11/15 02:23:46;;;;;;;3.30;2.30;;;;;;;7.60;100.00;98800.27;88516;274;22533;-71
2023/11/15 02:25:52;;;;;;;6.90;2.80;;;;;;;7.63;100.00;98800.67;88353;275;138608;-71
2023/11/15 02:27:54;;;;;;;5.70;2.70;;;;;;;7.63;100.00;98799.21;88598;274;24058;-74
2023/11/15 02:29:56;;;;;;;5.30;2.30;;;;;;;7.62;100.00;98803.26;88439;275;136495;-70
2023/11/15 02:31:57;;;;;;;4.00;3.00;;;;;;;7.60;100.00;98797.10;88417;285;23714;-70
2023/11/15 02:33:59;;;;;;;8.50;2.60;;;;;;;7.61;100.00;98799.74;88313;276;136271;-74
2023/11/15 02:36:02;;;;;;;5.60;2.60;;;;;;;7.61;100.00;98805.98;88546;282;24053;-74
2023/11/15 02:38:03;;;;;;;4.30;3.00;;;;;;;7.61;100.00;98808.15;88442;282;25144;-72
2023/11/15 02:40:09;;;;;;;5.70;2.30;;;;;;;7.60;100.00;98807.86;88332;282;137081;-74
2023/11/15 02:42:11;;;;;;;8.90;3.00;;;;;;;7.58;100.00;98812.61;88469;281;24153;-72
2023/11/15 02:44:14;;;;;;;6.00;3.10;;;;;;;7.59;100.00;98819.65;88428;282;136954;-69
2023/11/15 02:46:22;;;;;;;4.50;2.40;;;;;;;7.59;100.00;98820.52;88528;282;22556;-69
2023/11/15 02:48:25;;;;;;;4.90;2.90;;;;;;;7.62;100.00;98823.94;88448;279;136810;-70
2023/11/15 02:50:30;;;;;;;5.90;3.00;;;;;;;7.62;100.00;98824.42;88436;275;22545;-74
2023/11/15 02:52:33;;;;;;;;;;;;;;;7.56;100.00;98806.52;88544;275;136498;-79
2023/11/15 02:54:35;;;;;;;6.50;2.40;;;;;;;7.67;100.00;98815.32;88467;274;25096;-76
2023/11/15 02:56:39;;;;;;;9.00;2.90;;;;;;;7.66;100.00;98817.16;88475;275;138652;-78
2023/11/15 02:58:41;;;;;;;7.90;2.80;;;;;;;7.66;100.00;98818.21;88656;275;22545;-77
2023/11/15 03:00:44;;;;;;;6.70;2.80;;;;;;;7.67;100.00;98823.20;88531;281;136515;-77
2023/11/15 03:02:49;;;;;;;5.30;2.50;;;;;;;7.69;100.00;98831.15;88527;282;24022;-73
2023/11/15 03:04:51;;;;;;;4.90;2.20;;;;;;;7.68;100.00;98833.70;88456;275;136387;-77
2023/11/15 03:06:53;;;;;;;4.10;1.90;;;;;;;7.67;100.00;98836.25;88450;276;24246;-72
2023/11/15 03:08:55;;;;;;;7.40;2.50;;;;;;;7.68;100.00;98839.06;88399;282;136715;-78
2023/11/15 03:10:58;;;;;;;7.10;2.80;;;;;;;7.69;100.00;98847.51;88372;276;24136;-74
2023/11/15 03:13:03;;;;;;;9.10;1.90;;;;;;;7.71;100.00;98844.94;88241;284;136411;-78
2023/11/15 03:15:07;;;;;;;6.50;1.90;;;;;;;7.75;100.00;98846.08;88586;282;24054;-76
2023/11/15 03:17:14;;;;;;;3.10;2.10;;;;;;;7.76;100.00;98841.98;88285;283;136842;-66
2023/11/15 03:19:16;;;;;;;6.60;1.90;;;;;;;7.76;100.00;98834.19;88600;281;24032;-75
2023/11/15 03:21:18;;;;;;;5.50;3.30;;;;;;;7.76;100.00;98835.58;88406;274;136768;-74
2023/11/15 03:23:19;;;;;;;3.70;2.00;;;;;;;7.75;100.00;98839.41;88338;283;24176;-77
2023/11/15 03:25:21;;;;;;;5.80;2.30;;;;;;;7.74;100.00;98843.66;88434;274;137332;-70
2023/11/15 03:27:24;;;;;;;6.50;3.10;;;;;;;7.72;100.00;98839.31;88466;274;22582;-73
2023/11/15 03:29:26;;;;;;;9.60;2.40;;;;;;;7.72;100.00;98838.85;88262;281;137043;-72
2023/11/15 03:31:29;;;;;;;5.30;2.20;;;;;;;7.73;100.00;98836.41;88469;275;23522;-73
2023/11/15 03:33:32;;;;;;;3.20;1.90;;;;;;;7.73;100.00;98836.23;88479;282;136757;-74
2023/11/15 03:35:34;;;;;;;6.30;2.10;;;;;;;7.72;100.00;98833.67;88508;282;22561;-77
2023/11/15 03:37:36;;;;;;;6.40;2.80;;;;;;;7.71;100.00;98841.11;88311;275;137708;-74
2023/11/15 03:39:38;;;;;;;3.80;3.40;;;;;;;7.69;100.00;98839.59;88668;281;22537;-76
2023/11/15 03:41:40;;;;;;;3.80;2.60;;;;;;;7.68;100.00;98847.14;88362;274;138138;-73
2023/11/15 03:43:42;;;;;;;5.50;2.50;;;;;;;7.68;100.00;98852.03;88470;274;22627;-71
2023/11/15 03:45:45;;;;;;;6.60;2.50;;;;;;;7.67;100.00;98852.00;88438;278;138296;-72
2023/11/15 03:47:47;;;;;;;10.20;3.40;;;;;;;7.66;100.00;98852.60;88534;274;23714;-71
2023/11/15 03:49:49;;;;;;;8.60;2.60;;;;;;;7.62;100.00;98848.41;88347;282;137127;-74
2023/11/15 03:51:51;;;;;;;5.60;3.40;;;;;;;7.59;100.00;98846.40;88490;282;22523;-72
2023/11/15 03:53:53;;;;;;;7.40;3.30;;;;;;;7.50;100.00;98832.35;88342;279;136684;-67
2023/11/15 03:55:55;;;;;;;5.90;3.00;;;;;;;7.57;100.00;98847.52;88603;281;24262;-72
2023/11/15 03:57:57;;;;;;;5.60;2.80;;;;;;;7.56;100.00;98843.73;88428;274;136766;-71
2023/11/15 04:00:00;;;;;;;3.80;2.50;;;;;;;7.54;100.00;98843.68;88342;283;24025;-73
2023/11/15 04:02:15;;;;;;;5.70;2.70;;;;;;;7.50;100.00;98845.31;88481;277;22530;-71
2023/11/15 04:04:17;;;;;;;4.80;3.40;;;;;;;7.46;100.00;98843.85;88445;283;137014;-73
2023/11/15 04:06:20;;;;;;;6.30;3.30;;;;;;;7.44;100.00;98843.21;88620;282;22552;-71
2023/11/15 04:08:22;;;;;;;5.30;2.80;;;;;;;7.36;100.00;98830.89;88339;282;137182;-74
2023/11/15 04:10:24;;;;;;;5.90;2.40;;;;;;;7.43;100.00;98841.08;88554;282;25083;-73
2023/11/15 04:12:26;;;;;;;5.90;2.80;;;;;;;7.41;100.00;98834.48;88378;282;136951;-71
2023/11/15 04:14:28;;;;;;;7.20;2.60;;;;;;;7.38;100.00;98830.44;88503;281;22540;-70
2023/11/15 04:16:31;;;;;;;5.20;3.20;;;;;;;7.34;100.00;98836.02;88445;282;137732;-75
2023/11/15 04:18:33;;;;;;;6.20;2.70;;;;;;;7.32;100.00;98839.12;88502;281;22553;-72
2023/11/15 04:20:35;;;;;;;6.90;3.10;;;;;;;7.31;100.00;98840.05;88508;281;136778;-66
2023/11/15 04:22:37;;;;;;;6.40;4.40;;;;;;;7.22;100.00;98828.03;88442;280;24167;-73
2023/11/15 04:24:39;;;;;;;3.80;2.70;;;;;;;7.27;100.00;98840.71;88458;283;137668;-74
2023/11/15 04:26:42;;;;;;;5.90;3.20;;;;;;;7.27;100.00;98840.06;88534;283;26347;-70
2023/11/15 04:28:44;;;;;;;4.90;2.20;;;;;;;7.27;100.00;98845.89;88741;278;136698;-73
2023/11/15 04:30:46;;;;;;;5.90;2.00;;;;;;;7.26;100.00;98849.23;88648;275;25207;-69
2023/11/15 04:32:48;;;;;;;5.10;2.50;;;;;;;7.27;100.00;98852.09;88460;278;136900;-70
2023/11/15 04:34:50;;;;;;;6.70;3.10;;;;;;;7.27;100.00;98858.48;88470;275;22552;-66
2023/11/15 04:36:52;;;;;;;5.30;2.70;;;;;;;7.27;100.00;98856.98;88521;274;136716;-68
2023/11/15 04:38:54;;;;;;;9.00;2.60;;;;;;;7.29;100.00;98863.47;88565;274;25227;-72
2023/11/15 04:40:56;;;;;;;6.00;3.20;;;;;;;7.31;100.00;98861.55;88528;281;138095;-74
2023/11/15 04:42:58;;;;;;;6.00;2.40;;;;;;;7.34;100.00;98858.38;88546;282;22534;-74
2023/11/15 04:46:18;;;;;;;8.40;3.50;;;;;;;7.38;100.00;98862.60;86778;304;602573;-69
2023/11/15 04:48:20;;;;;;;3.50;2.80;;;;;;;7.42;100.00;98861.48;88067;294;138021;-72
2023/11/15 04:50:23;;;;;;;5.70;3.00;;;;;;;7.47;100.00;98860.53;87931;287;22557;-71
2023/11/15 04:52:25;;;;;;;4.90;3.10;;;;;;;7.51;100.00;98862.61;87876;286;136138;-73
2023/11/15 04:54:27;;;;;;;9.80;3.30;;;;;;;7.51;100.00;98863.31;88056;285;24042;-75
2023/11/15 04:56:30;;;;;;;4.70;3.00;;;;;;;7.52;100.00;98865.31;87844;289;135997;-74
2023/11/15 04:58:32;;;;;;;4.50;2.90;;;;;;;7.52;100.00;98870.77;87931;293;22537;-73
2023/11/15 05:00:35;;;;;;;6.40;4.20;;;;;;;7.53;100.00;98869.55;87441;290;522757;-77
2023/11/15 05:02:37;;;;;;;3.80;3.00;;;;;;;7.56;100.00;98875.83;87755;284;22537;-70
2023/11/15 05:04:39;;;;;;;7.40;3.10;;;;;;;7.47;100.00;98863.44;87672;285;135929;-70
2023/11/15 05:06:44;;;;;;;8.50;3.50;;;;;;;7.57;100.00;98880.94;87741;284;24064;-68
2023/11/15 05:08:46;;;;;;;8.10;3.80;;;;;;;7.58;100.00;98883.95;87995;283;136594;-69
2023/11/15 05:10:48;;;;;;;6.50;3.90;;;;;;;7.59;100.00;98887.33;88106;283;25174;-71
2023/11/15 05:12:50;;;;;;;6.10;3.10;;;;;;;7.63;100.00;98894.47;88094;280;136662;-70
2023/11/15 05:14:51;;;;;;;10.30;3.60;;;;;;;7.67;100.00;98897.20;88190;280;25127;-71
2023/11/15 05:16:53;;;;;;;5.40;3.90;;;;;;;7.70;100.00;98902.74;88055;280;136469;-67
2023/11/15 05:18:55;;;;;;;5.80;3.20;;;;;;;7.72;100.00;98899.64;88139;283;22623;-73
2023/11/15 05:20:58;;;;;;;6.70;3.60;;;;;;;7.75;100.00;98906.10;88037;280;136459;-69
2023/11/15 05:23:00;;;;;;;9.70;5.90;;;;;;;7.78;100.00;98910.30;88116;280;22530;-73
2023/11/15 05:25:05;;;;;;;11.10;3.80;;;;;;;7.82;100.00;98907.31;87975;284;136675;-68
2023/11/15 05:27:08;;;;;;;10.00;4.80;;;;;;;7.86;100.00;98906.62;88285;276;25752;-71
2023/11/15 05:29:10;;;;;;;7.80;4.60;;;;;;;7.87;100.00;98906.32;88221;277;136990;-69
2023/11/15 05:31:12;;;;;;;11.30;4.70;;;;;;;7.87;100.00;98912.70;88268;284;25124;-70
2023/11/15 05:33:15;;;;;;;8.20;4.00;;;;;;;7.89;100.00;98907.65;88219;284;137905;-70
2023/11/15 05:35:17;;;;;;;8.70;4.30;;;;;;;7.90;100.00;98910.21;88296;277;22559;-71
2023/11/15 05:37:19;;;;;;;11.50;5.00;;;;;;;7.90;100.00;98911.20;88086;277;136478;-67
2023/11/15 05:39:22;;;;;;;12.70;4.50;;;;;;;7.92;100.00;98912.13;88232;277;23811;-70
2023/11/15 05:41:24;;;;;;;8.60;4.70;;;;;;;7.95;100.00;98910.95;88148;277;137117;-69
2023/11/15 05:43:30;;;;;;;7.50;4.10;;;;;;;7.93;100.00;98910.45;88276;277;22533;-70
2023/11/15 05:45:32;;;;;;;8.40;4.60;;;;;;;7.90;100.00;98910.09;88094;277;136470;-71
2023/11/15 05:47:34;;;;;;;9.00;4.80;;;;;;;7.89;100.00;98914.58;88192;281;22549;-71
2023/11/15 05:49:36;;;;;;;11.10;3.90;;;;;;;7.88;100.00;98911.67;88023;277;137613;-71
2023/11/15 05:51:40;;;;;;;10.60;4.10;;;;;;;7.87;100.00;98913.59;88034;277;22530;-73
2023/11/15 05:53:43;;;;;;;6.90;4.60;;;;;;;7.86;100.00;98916.45;90737;281;136832;-73
2023/11/15 05:55:46;;;;;;;11.00;5.50;;;;;;;7.82;100.00;98898.80;88449;273;22879;-72
2023/11/15 05:57:48;;;;;;;14.00;4.30;;;;;;;7.90;100.00;98911.92;88237;273;136871;-68
2023/11/15 05:59:50;;;;;;;4.90;3.70;;;;;;;7.88;100.00;98909.52;88456;274;22537;-69
2023/11/15 06:01:54;;;;;;;10.40;4.70;;;;;;;7.91;100.00;98913.92;88271;273;136361;-67
2023/11/15 06:03:56;;;;;;;10.20;4.90;;;;;;;7.92;100.00;98911.79;88365;280;24164;-71
2023/11/15 06:05:59;;;;;;;14.80;8.50;;;;;;;7.95;100.00;98916.49;88218;275;137700;-74
2023/11/15 06:08:01;;;;;;;11.40;7.20;;;;;;;8.00;100.00;98915.88;88482;274;23337;-70
2023/11/15 06:10:08;;;;;;;21.60;8.80;;;;;;;8.05;100.00;98921.91;88308;278;22534;-72
2023/11/15 06:12:11;;;;;;;14.20;6.10;;;;;;;8.08;100.00;98922.67;88316;274;136947;-74
2023/11/15 06:14:17;;;;;;;17.50;7.00;;;;;;;8.11;100.00;98924.46;88517;273;23680;-72
2023/11/15 06:16:19;;;;;;;14.70;7.40;;;;;;;8.16;100.00;98921.93;88442;273;136869;-68
2023/11/15 06:18:22;;;;;;;16.00;8.00;;;;;;;8.20;100.00;98922.08;88446;274;25210;-69
2023/11/15 06:20:24;;;;;;;13.40;5.70;;;;;;;8.23;100.00;98918.57;88339;273;136628;-69
2023/11/15 06:22:27;;;;;;;9.60;5.90;;;;;;;8.29;100.00;98920.10;88369;277;25083;-69
2023/11/15 06:24:29;;;;;;;14.90;5.70;;;;;;;8.34;100.00;98922.83;88284;273;136115;-69
2023/11/15 06:26:36;;;;;;;11.00;5.70;;;;;;;8.34;100.00;98927.16;88334;275;25216;-65
2023/11/15 06:28:40;;;;;;;15.00;6.00;;;;;;;8.33;100.00;98923.40;88449;274;136689;-69
2023/11/15 06:30:47;;;;;;;10.00;5.40;;;;;;;8.34;100.00;98926.38;89438;281;24195;-67
2023/11/15 06:32:49;;;;;;;12.10;5.40;;;;;;;8.35;100.00;98924.75;88284;278;136761;-69
2023/11/15 06:34:52;;;;;;;12.60;5.40;;;;;;;8.39;100.00;98928.30;88412;273;22545;-67
2023/11/15 06:36:55;;;;;;;12.70;6.50;;;;;;;8.43;100.00;98924.66;88454;273;136713;-70
2023/11/15 06:38:58;;;;;;;9.60;5.50;;;;;;;8.45;100.00;98929.33;88415;273;24749;-70
2023/11/15 06:41:01;;;;;;;17.40;6.10;;;;;;;8.46;100.00;98927.45;89062;273;136842;-68
2023/11/15 06:43:03;;;;;;;14.40;6.20;;;;;;;8.47;100.00;98928.42;88386;275;22549;-70
2023/11/15 06:45:06;;;;;;;11.80;6.20;;;;;;;8.46;100.00;98931.33;88403;273;136559;-72
2023/11/15 06:47:08;;;;;;;13.90;6.00;;;;;;;8.47;100.00;98931.40;88490;273;25111;-73
2023/11/15 06:49:11;;;;;;;14.50;5.80;;;;;;;8.48;100.00;98931.19;88253;275;136666;-69
2023/11/15 06:51:13;;;;;;;11.90;6.30;;;;;;;8.50;100.00;98928.77;88399;274;24020;-70
2023/11/15 06:53:15;;;;;;;7.80;5.00;;;;;;;8.54;100.00;98925.98;88389;275;138167;-71
2023/11/15 06:55:18;;;;;;;13.80;4.90;;;;;;;8.59;100.00;98926.98;88455;273;22541;-71
2023/11/15 06:57:20;;;;;;;10.90;5.10;;;;;;;8.63;100.00;98930.40;88276;279;136939;-67
2023/11/15 06:59:22;;;;;;;15.60;6.30;;;;;;;8.65;100.00;98934.61;88374;275;22547;-66
2023/11/15 07:01:24;;;;;;;14.60;6.10;;;;;;;8.66;100.00;98938.89;88186;275;136503;-68
2023/11/15 07:03:26;;;;;;;10.80;5.40;;;;;;;8.68;100.00;98945.95;88283;274;25120;-67
2023/11/15 07:05:28;;;;;;;7.20;4.60;;;;;;;8.72;100.00;98944.97;88270;281;138185;-71
2023/11/15 07:07:31;;;;;;;14.30;5.10;;;;;;;8.77;100.00;98947.27;88305;273;22534;-71
2023/11/15 07:09:33;;;;;;;10.30;6.40;;;;;;;8.74;100.00;98935.27;88255;277;140310;-68
2023/11/15 07:11:35;;;;;;;12.00;5.70;;;;;;;8.89;100.00;98950.95;88318;277;22773;-70
2023/11/15 07:13:37;;;;;;;8.20;5.30;;;;;;;8.96;100.00;98951.73;88293;273;136798;-66
2023/11/15 07:15:40;;;;;;;10.40;5.50;;;;;;;9.01;100.00;98954.02;88377;277;22618;-68
2023/11/15 07:17:44;;;;;;;8.90;6.10;;;;;;;9.03;100.00;98954.31;88343;273;136468;-70
2023/11/15 07:19:49;;;;;;;9.60;5.00;;;;;;;9.03;100.00;98957.30;88456;277;24054;-68
2023/11/15 07:21:55;;;;;;;14.50;4.90;;;;;;;9.03;100.00;98954.19;88518;277;136427;-69
2023/11/15 07:23:58;;;;;;;9.60;5.20;;;;;;;9.03;100.00;98956.77;88460;273;22516;-72
2023/11/15 07:26:01;;;;;;;14.10;5.60;;;;;;;9.02;100.00;98952.02;88753;274;136750;-71
2023/11/15 07:28:03;;;;;;;16.30;5.80;;;;;;;9.02;100.00;98951.08;88720;273;136755;-70
2023/11/15 07:30:07;;;;;;;10.40;5.10;;;;;;;9.05;100.00;98949.11;88391;280;22614;-67
2023/11/15 07:32:10;;;;;;;14.10;5.20;;;;;;;9.08;100.00;98954.38;88808;280;137950;-72
2023/11/15 07:34:11;;;;;;;9.10;5.70;;;;;;;9.10;100.00;98949.45;88851;280;25168;-72
2023/11/15 07:36:14;;;;;;;10.90;5.30;;;;;;;9.13;100.00;98952.59;88735;273;136739;-72
2023/11/15 07:38:16;;;;;;;12.10;5.80;;;;;;;9.16;100.00;98948.45;88771;279;22534;-78
2023/11/15 07:40:18;;;;;;;12.70;6.10;;;;;;;9.19;100.00;98944.65;88717;273;137851;-78
2023/11/15 07:42:20;;;;;;;11.40;5.70;;;;;;;9.21;100.00;98947.92;88304;275;24057;-77
2023/11/15 07:44:22;;;;;;;9.90;5.40;;;;;;;9.21;100.00;98943.71;88776;273;137254;-72
2023/11/15 07:46:24;;;;;;;11.10;5.20;;;;;;;9.21;100.00;98940.15;88819;273;25252;-73
2023/11/15 07:48:27;;;;;;;11.10;5.70;;;;;;;9.23;100.00;98937.93;88679;280;136715;-71
2023/11/15 07:50:29;;;;;;;11.80;5.80;;;;;;;9.27;100.00;98931.21;88885;274;24021;-73
2023/11/15 07:52:32;;;;;;;11.70;5.20;;;;;;;9.29;100.00;98930.48;88652;274;136754;-73
2023/11/15 07:54:33;;;;;;;15.00;5.30;;;;;;;9.32;100.00;98929.04;88823;274;22752;-73
2023/11/15 07:56:35;;;;;;;8.80;5.00;;;;;;;9.35;100.00;98930.73;88644;274;137526;-72
2023/11/15 07:58:40;;;;;;;13.30;5.70;;;;;;;9.40;100.00;98930.76;88878;273;22534;-76
2023/11/15 08:00:42;;;;;;;13.10;5.80;;;;;;;9.45;100.00;98930.30;88744;273;136553;-71
2023/11/15 08:02:44;;;;;;;9.60;4.40;;;;;;;9.51;100.00;98928.28;88848;275;25168;-70
2023/11/15 08:04:46;;;;;;;7.40;4.30;;;;;;;9.59;100.00;98928.15;88790;273;136539;-73
2023/11/15 08:06:49;;;;;;;7.40;3.90;;;;;;;9.64;100.00;98926.15;89107;273;24054;-73
2023/11/15 08:08:52;;;;;;;6.70;3.80;;;;;;;9.68;100.00;98915.52;88923;273;136434;-74
2023/11/15 08:10:54;;;;;;;12.20;4.10;;;;;;;9.71;100.00;98916.80;88851;277;22544;-75
2023/11/15 08:12:56;;;;;;;10.70;4.00;;;;;;;9.78;100.00;98922.02;88891;273;137041;-76
2023/11/15 08:14:58;;;;;;;7.00;4.80;;;;;;;9.82;100.00;98914.54;88970;277;25197;-75
2023/11/15 08:17:01;;;;;;;8.30;5.00;;;;;;;9.86;100.00;98912.90;89011;281;138093;-74
2023/11/15 08:19:03;;;;;;;8.90;4.70;;;;;;;9.91;100.00;98910.45;88942;274;25109;-75
2023/11/15 08:21:05;;;;;;;8.80;5.70;;;;;;;9.99;100.00;98918.29;88947;278;136498;-76
2023/11/15 08:23:10;;;;;;;15.00;6.40;;;;;;;10.03;100.00;98919.30;88974;274;22752;-73
2023/11/15 08:25:12;;;;;;;11.50;6.30;;;;;;;10.05;100.00;98918.33;88767;273;138004;-75
2023/11/15 08:27:15;;;;;;;12.10;7.20;;;;;;;10.10;100.00;98921.58;88895;273;22548;-76
2023/11/15 08:29:17;;;;;;;12.80;7.10;;;;;;;10.13;100.00;98915.32;88872;274;137657;-75
2023/11/15 08:31:23;;;;;;;14.60;6.90;;;;;;;10.15;100.00;98915.39;88978;273;22535;-76
2023/11/15 08:33:27;;;;;;;11.20;8.00;;;;;;;10.14;100.00;98916.63;89132;273;139163;-75
2023/11/15 08:35:29;;;;;;;13.30;6.30;;;;;;;10.15;100.00;98922.13;89264;274;22565;-76
2023/11/15 08:37:32;;;;;;;14.60;6.20;;;;;;;10.14;100.00;98917.60;88833;275;136815;-75
2023/11/15 08:39:34;;;;;;;12.00;6.20;;;;;;;10.17;100.00;98920.45;90238;274;22530;-77
2023/11/15 08:41:36;;;;;;;11.90;7.20;;;;;;;10.21;100.00;98918.19;89081;274;137210;-76
2023/11/15 08:43:38;;;;;;;11.00;5.40;;;;;;;10.27;100.00;98918.56;89130;274;22616;-78
2023/11/15 08:45:41;;;;;;;8.50;6.00;;;;;;;10.34;100.00;98916.80;89093;281;137972;-77
2023/11/15 08:47:43;;;;;;;7.90;5.00;;;;;;;10.40;100.00;98911.09;89006;277;25308;-75
2023/11/15 08:49:45;;;;;;;7.40;4.40;;;;;;;10.46;100.00;98911.89;89012;282;137659;-78
2023/11/15 08:51:50;;;;;;;9.90;4.20;;;;;;;10.48;100.00;98909.73;89043;281;26679;-76
2023/11/15 08:53:53;;;;;;;7.70;4.20;;;;;;;10.42;100.00;98895.38;88847;274;137821;-78
2023/11/15 08:55:55;;;;;;;8.20;4.10;;;;;;;10.50;100.00;98912.09;89147;281;22531;-77
2023/11/15 08:57:57;;;;;;;7.30;4.40;;;;;;;10.48;100.00;98912.19;88814;278;136433;-77
2023/11/15 09:00:00;;;;;;;7.60;3.80;;;;;;;10.46;100.00;98904.71;88979;274;22904;-75
2023/11/15 09:02:02;;;;;;;6.00;3.50;;;;;;;10.42;100.00;98901.76;88382;277;136576;-70
2023/11/15 09:04:05;;;;;;;5.90;3.60;;;;;;;10.38;100.00;98902.35;88876;274;137081;-73
2023/11/15 09:06:11;;;;;;;9.60;4.10;;;;;;;10.32;100.00;98903.02;89298;273;22618;-77
2023/11/15 09:08:13;;;;;;;6.80;4.30;;;;;;;10.27;100.00;98899.61;89050;279;136836;-77
2023/11/15 09:10:16;;;;;;;6.50;3.90;;;;;;;10.23;100.00;98895.85;89078;273;22520;-75
2023/11/15 09:12:22;;;;;;;8.70;4.40;;;;;;;10.18;100.00;98891.23;88883;273;136884;-77
2023/11/15 09:14:24;;;;;;;8.00;4.30;;;;;;;10.14;100.00;98893.48;88858;273;22540;-76
2023/11/15 09:16:26;;;;;;;10.10;4.40;;;;;;;10.13;100.00;98891.03;88734;279;136674;-76
2023/11/15 09:18:27;;;;;;;7.20;4.00;;;;;;;10.15;100.00;98890.03;88952;278;26382;-75
2023/11/15 09:20:31;;;;;;;9.80;4.50;;;;;;;10.18;100.00;98888.10;89138;274;137955;-74
2023/11/15 09:22:34;;;;;;;7.30;4.50;;;;;;;10.24;100.00;98881.08;89277;274;25399;-75
2023/11/15 09:24:37;;;;;;;9.70;5.80;;;;;;;10.34;100.00;98883.90;88798;281;136874;-76
2023/11/15 09:26:38;;;;;;;7.00;4.00;;;;;;;10.45;100.00;98884.00;88955;274;23691;-73
2023/11/15 09:28:41;;;;;;;7.50;4.30;;;;;;;10.55;100.00;98885.52;88335;273;137483;-75
2023/11/15 09:30:45;;;;;;;9.10;4.10;;;;;;;10.64;100.00;98885.71;88828;273;22534;-74
2023/11/15 09:32:50;;;;;;;8.10;3.40;;;;;;;10.71;100.00;98886.01;88992;277;136679;-76
2023/11/15 09:34:52;;;;;;;;;;;;;;;10.78;100.00;98886.83;89083;275;24058;-75
2023/11/15 09:36:54;;;;;;;5.90;4.00;;;;;;;10.82;100.00;98885.62;88885;278;123166;-76
2023/11/15 09:38:56;;;;;;;7.90;3.70;;;;;;;10.86;100.00;98884.59;88861;282;22544;-76